Latest Weather Observations for Dubbo

IDN60801

Issued at 2:05 am EST Friday 3 October 2014 (issued every 30 minutes, with the page automatically refreshed every 10 minutes)

About weather observations | Map of weather stations | Latest weather observations for NSW | Other Formats
Station Details ID: 065070 Name: DUBBO AIRPORT AWS Lat: -32.22 Lon: 148.58 Height: 284.0 m
Data from the previous 72 hours. | See also: Recent months at Dubbo
Date/Time
EST
Temp
°C
App
Temp
°C
Dew
Point
Rel
Hum
%
Delta-T
°C
Wind Press
QNH
hPa
Press
MSL
hPa
Rain
since 9 am
mm
Dir
 
Spd
km/h
Gust
km/h
Spd
kts
Gust
kts
03/02:00am 8.2 3.3 4.0 75 1.8 SSE 19 20 10 11 1020.2 1019.6 0.0
03/01:30am 8.9 3.9 4.7 75 1.9 SSE 20 20 11 11 1020.5 1019.9 0.0
03/01:00am 7.5 3.0 4.3 80 1.4 SSE 17 19 9 10 1021.0 1020.4 0.0
03/12:30am 10.2 6.4 5.6 73 2.1 S 15 17 8 9 1021.0 1020.4 0.0
03/12:00am 7.8 4.2 2.7 70 2.2 SSE 11 15 6 8 1021.1 1020.5 0.0
 
Date/Time
EST
Temp
°C
App
Temp
°C
Dew
Point
Rel
Hum
%
Delta-T
°C
Wind Press
QNH
hPa
Press
MSL
hPa
Rain
since 9 am
mm
Dir
 
Spd
km/h
Gust
km/h
Spd
kts
Gust
kts
02/11:30pm 11.5 7.8 4.7 63 3.1 S 13 17 7 9 1021.2 1020.6 0.0
02/11:00pm 10.9 7.5 3.9 62 3.1 SSW 11 15 6 8 1021.2 1020.6 0.0
02/10:30pm 13.5 10.2 4.4 54 4.2 S 11 13 6 7 1021.2 1020.6 0.0
02/10:00pm 13.6 9.9 4.5 54 4.2 S 13 15 7 8 1021.3 1020.7 0.0
02/09:30pm 12.8 9.1 4.5 57 3.9 S 13 15 7 8 1021.4 1020.8 0.0
02/09:00pm 12.8 8.8 4.8 58 3.7 S 15 17 8 9 1021.5 1020.9 0.0
02/08:30pm 12.6 9.3 4.3 57 3.8 SSW 11 13 6 7 1021.5 1020.9 0.0
02/08:00pm 12.9 9.5 4.1 55 4.0 SSW 11 13 6 7 1021.3 1020.7 0.0
02/07:30pm 14.0 10.6 3.8 50 4.7 SSW 11 13 6 7 1021.1 1020.5 0.0
02/07:00pm 15.5 11.6 3.6 45 5.5 SSW 13 15 7 8 1020.8 1020.2 0.0
02/06:30pm 16.1 11.8 3.5 43 5.9 SW 15 17 8 9 1020.6 1020.0 0.0
02/06:00pm 18.2 14.0 3.7 38 6.9 SW 15 17 8 9 1020.3 1019.7 0.0
02/05:30pm 20.5 15.5 3.7 33 8.1 SW 19 24 10 13 1020.2 1019.6 0.0
02/05:04pm 21.4 16.3 3.1 30 8.8 SW 19 28 10 15 1020.0 1019.4 0.0
02/05:00pm 21.5 16.4 3.2 30 8.8 WSW 19 28 10 15 1020.0 1019.4 0.0
02/04:45pm 21.7 17.3 2.9 29 9.0 SSW 15 22 8 12 1019.9 1019.3 0.0
02/04:30pm 22.0 16.8 2.7 28 9.3 SSW 19 26 10 14 1019.9 1019.3 0.0
02/04:00pm 22.8 17.9 3.9 29 9.3 SSW 19 22 10 12 1019.9 1019.3 0.0
02/03:30pm 22.7 19.2 3.3 28 9.5 W 11 20 6 11 1020.0 1019.4 0.0
02/03:00pm 22.1 17.5 1.7 26 9.6 WSW 15 20 8 11 1020.2 1019.6 0.0
02/02:30pm 22.5 19.2 2.6 27 9.6 S 9 15 5 8 1020.3 1019.7 0.0
02/02:00pm 22.0 18.5 1.1 25 9.7 SSW 9 19 5 10 1020.7 1020.1 0.0
02/01:30pm 21.4 18.0 1.6 27 9.3 WSW 9 15 5 8 1020.9 1020.3 0.0
02/01:00pm 20.3 16.0 1.2 28 8.8 WSW 13 26 7 14 1021.4 1020.8 0.0
02/12:30pm 20.5 16.9 2.8 31 8.4 W 11 20 6 11 1021.8 1021.3 0.0
02/12:00pm 19.2 16.3 2.6 33 7.8 SW 7 17 4 9 1022.1 1021.6 0.0
02/11:20am 18.4 14.9 3.5 37 7.1 SW 11 20 6 11 1022.7 1022.2 0.0
02/11:04am 17.1 13.4 2.3 37 6.8 S 11 20 6 11 1023.0 1022.5 0.0
02/11:00am 17.5 14.0 3.4 39 6.6 S 11 17 6 9 1023.0 1022.5 0.0
02/10:30am 16.6 13.9 3.6 42 6.1 SW 7 11 4 6 1023.4 1022.8 0.0
02/10:00am 16.2 13.2 3.9 44 5.8 E 9 17 5 9 1023.9 1023.3 0.0
02/09:30am 15.4 12.4 4.2 47 5.3 ENE 9 13 5 7 1024.0 1023.4 0.0
02/09:00am 14.1 10.0 2.4 45 5.2 SE 13 17 7 9 1024.1 1023.5 0.0
02/08:30am 12.0 6.6 2.2 51 4.3 SE 20 24 11 13 1024.2 1023.6 0.0
02/08:00am 11.3 6.6 3.1 57 3.6 SSE 17 22 9 12 1024.2 1023.6 0.0
02/07:30am 10.0 5.2 2.4 59 3.3 SSE 17 20 9 11 1023.9 1023.3 0.0
02/07:00am 8.2 2.8 1.4 62 2.8 SSE 19 24 10 13 1023.7 1023.1 0.0
02/06:30am 6.7 1.3 1.4 69 2.2 SSE 19 22 10 12 1023.4 1022.8 0.0
02/06:00am 3.7 -1.8 0.6 80 1.2 SSE 19 20 10 11 1023.0 1022.5 0.0
02/05:30am 1.6 -3.3 -0.3 87 0.7 SE 15 15 8 8 1022.9 1022.4 0.0
02/05:00am 0.6 -4.1 -1.5 86 0.8 E 13 15 7 8 1022.8 1022.3 0.0
02/04:30am 1.4 -2.8 -1.0 84 0.9 E 11 13 6 7 1022.6 1022.1 0.0
02/04:00am 2.7 -2.2 -0.4 80 1.2 SSE 15 15 8 8 1022.4 1021.9 0.0
02/03:30am 2.3 -2.2 -0.6 81 1.1 SSE 13 15 7 8 1022.5 1022.0 0.0
02/03:00am 1.8 -2.8 -1.1 81 1.0 SSE 13 15 7 8 1022.7 1022.2 0.0
02/02:30am 2.4 -2.6 -0.9 79 1.2 SSE 15 17 8 9 1023.0 1022.5 0.0
02/02:00am 2.8 -2.1 -0.6 78 1.3 SE 15 17 8 9 1023.4 1022.8 0.0
02/01:30am 2.9 -1.8 -1.8 71 1.7 SSE 13 15 7 8 1023.4 1022.8 0.0
02/01:00am 5.4 0.5 -0.4 66 2.2 S 15 17 8 9 1023.5 1022.9 0.0
02/12:30am 4.2 -0.4 -0.8 70 1.9 S 13 15 7 8 1023.7 1023.1 0.0
02/12:00am 3.8 -0.9 -1.7 67 2.0 ESE 13 15 7 8 1023.6 1023.0 0.0
 
Date/Time
EST
Temp
°C
App
Temp
°C
Dew
Point
Rel
Hum
%
Delta-T
°C
Wind Press
QNH
hPa
Press
MSL
hPa
Rain
since 9 am
mm
Dir
 
Spd
km/h
Gust
km/h
Spd
kts
Gust
kts
01/11:34pm 5.3 0.7 -0.7 65 2.3 E 13 19 7 10 1023.4 1022.8 0.0
01/11:30pm 4.3 -0.3 -1.3 67 2.1 E 13 19 7 10 1023.4 1022.8 0.0
01/11:15pm 5.3 0.7 -1.2 63 2.5 SSE 13 15 7 8 1023.0 1022.5 0.0
01/11:00pm 5.6 0.8 -2.2 57 2.9 ESE 13 17 7 9 1023.1 1022.6 0.0
01/10:30pm 6.2 1.6 -1.4 58 2.9 S 13 15 7 8 1022.9 1022.4 0.0
01/10:00pm 7.2 2.2 -1.5 54 3.3 SSE 15 17 8 9 1022.8 1022.3 0.0
01/09:30pm 8.5 3.8 -2.1 47 4.1 S 13 17 7 9 1022.9 1022.4 0.0
01/09:11pm 9.5 4.8 -2.1 44 4.5 S 13 17 7 9 1022.9 1022.4 0.0
01/09:00pm 10.4 5.3 -1.9 42 4.8 SSW 15 20 8 11 1022.9 1022.4 0.0
01/08:54pm 10.7 5.6 -2.0 41 5.0 SSW 15 20 8 11 1022.8 1022.3 0.0
01/08:50pm 11.1 5.6 -2.0 40 5.2 SSW 17 20 9 11 1022.8 1022.3 0.0
01/08:40pm 10.7 5.6 -2.0 41 5.0 SSW 15 19 8 10 1022.7 1022.2 0.0
01/08:30pm 10.4 5.7 -1.9 42 4.8 SSW 13 17 7 9 1022.8 1022.3 0.0
01/08:00pm 11.3 6.5 -2.8 37 5.5 SSW 13 17 7 9 1022.4 1021.9 0.0
01/07:30pm 12.6 7.0 -2.8 34 6.1 SSW 17 20 9 11 1022.5 1022.0 0.0
01/07:00pm 13.6 7.6 -3.2 31 6.6 SSW 19 24 10 13 1022.1 1021.6 0.0
01/06:30pm 14.2 8.1 -3.6 29 7.0 SSW 19 26 10 14 1021.6 1021.0 0.0
01/06:00pm 15.0 9.0 -3.3 28 7.3 SSW 19 26 10 14 1021.0 1020.4 0.0
01/05:30pm 16.2 9.6 -3.3 26 7.9 SSW 22 32 12 17 1020.7 1020.1 0.0
01/05:00pm 17.4 11.2 -3.4 24 8.5 SSW 20 32 11 17 1020.5 1019.9 0.0
01/04:30pm 18.0 10.9 -4.0 22 8.9 SSW 24 39 13 21 1020.3 1019.7 0.0
01/04:00pm 18.3 10.8 -4.4 21 9.1 S 26 37 14 20 1020.3 1019.7 0.0
01/03:30pm 18.7 10.9 -3.4 22 9.1 S 28 41 15 22 1020.2 1019.6 0.0
01/03:00pm 18.8 11.4 -3.3 22 9.1 SSW 26 35 14 19 1020.3 1019.7 0.0
01/02:30pm 18.5 12.5 -1.9 25 8.7 S 20 28 11 15 1020.3 1019.7 0.0
01/02:00pm 18.0 10.3 -2.8 24 8.6 SSW 28 41 15 22 1020.5 1019.9 0.0
01/01:30pm 18.1 10.0 -3.3 23 8.8 SSW 30 41 16 22 1020.7 1020.1 0.0
01/01:00pm 17.8 9.3 -3.6 23 8.7 SSW 32 46 17 25 1021.0 1020.4 0.0
01/12:30pm 17.3 10.3 -3.4 24 8.4 S 24 35 13 19 1021.2 1020.6 0.0
01/12:00pm 16.9 9.2 -3.2 25 8.2 SSW 28 43 15 23 1021.3 1020.7 0.0
01/11:30am 16.2 8.1 -3.3 26 7.9 SSW 30 46 16 25 1021.4 1020.8 0.0
01/11:23am 16.9 9.2 -3.2 25 8.2 S 28 46 15 25 1021.4 1020.8 0.0
01/11:00am 16.7 10.0 -0.9 30 7.5 S 24 37 13 20 1021.5 1020.9 0.0
01/10:30am 15.9 8.8 -1.2 31 7.2 SSW 26 39 14 21 1021.4 1020.8 0.0
01/10:00am 15.3 7.1 -0.9 33 6.8 SSW 32 44 17 24 1021.7 1021.1 0.0
01/09:39am 14.8 7.0 -0.9 34 6.6 SSW 30 48 16 26 1021.6 1021.4 0.0
01/09:30am 14.4 6.0 -1.2 34 6.5 SSW 33 46 18 25 1021.5 1021.3 0.0
01/09:00am 13.9 5.9 0.2 39 5.8 SSW 32 43 17 23 1021.4 1021.2 0.0
01/08:30am 13.1 5.2 0.8 43 5.3 S 32 43 17 23 1021.3 1021.1 0.0
01/08:00am 12.9 5.5 1.6 46 4.9 S 30 43 16 23 1021.0 1020.8 0.0
01/07:30am 12.3 6.2 2.5 51 4.3 S 24 35 13 19 1020.8 1020.6 0.0
01/07:00am 11.3 6.6 3.1 57 3.6 SW 17 24 9 13 1020.5 1020.3 0.0
01/06:43am 10.7 6.8 3.3 60 3.3 SW 13 17 7 9 1020.4 1020.2 0.0
01/06:33am 10.3 6.3 3.1 61 3.2 SW 13 19 7 10 1020.3 1020.1 0.0
01/06:30am 10.3 6.3 2.9 60 3.2 SW 13 20 7 11 1020.3 1020.1 0.0
01/06:00am 9.7 5.3 2.6 61 3.1 SW 15 19 8 10 1019.8 1019.6 0.0
01/05:30am 9.3 4.7 1.5 58 3.3 SW 15 19 8 10 1019.2 1019.1 0.0
01/05:00am 11.0 5.8 0.1 47 4.5 SSW 17 24 9 13 1018.8 1018.6 0.0
01/04:30am 11.2 5.6 -2.6 38 5.4 SSW 17 22 9 12 1018.2 1018.0 0.0
01/04:00am 12.0 6.4 -3.0 35 5.8 SSW 17 24 9 13 1017.9 1017.7 0.0
01/03:30am 12.9 5.3 -2.2 35 6.0 SSW 28 43 15 23 1017.5 1017.3 0.0
01/03:18am 13.2 5.6 0.6 42 5.4 SSW 30 48 16 26 1017.2 1017.0 0.0
01/03:00am 13.3 7.1 4.5 55 4.1 SSW 26 33 14 18 1017.2 1017.0 0.0
01/02:30am 13.8 9.5 6.9 63 3.4 S 19 24 10 13 1016.9 1016.7 0.0
01/02:00am 14.7 10.2 6.8 59 3.9 SSW 20 26 11 14 1016.5 1016.3 0.0
01/01:31am 15.5 6.9 6.5 55 4.4 SSW 41 59 22 32 1015.7 1015.5 0.0
01/01:30am 15.7 6.8 6.7 55 4.5 SSW 43 59 23 32 1015.7 1015.5 0.0
01/01:13am 18.0 9.2 3.5 38 6.9 SW 39 63 21 34 1015.1 1014.9 0.0
01/01:05am 19.3 11.5 1.8 31 8.1 SW 32 46 17 25 1014.6 1014.4 0.0
01/01:00am 18.2 12.1 2.5 35 7.3 SW 24 28 13 15 1014.4 1014.2 0.0
01/12:30am 14.5 10.6 3.3 47 5.1 W 13 19 7 10 1013.9 1013.7 0.0
01/12:00am 17.1 13.9 3.1 39 6.5 WNW 9 11 5 6 1013.7 1013.5 0.0
 
Date/Time
EST
Temp
°C
App
Temp
°C
Dew
Point
Rel
Hum
%
Delta-T
°C
Wind Press
QNH
hPa
Press
MSL
hPa
Rain
since 9 am
mm
Dir
 
Spd
km/h
Gust
km/h
Spd
kts
Gust
kts
30/11:30pm 17.9 14.7 3.0 37 7.0 WNW 9 13 5 7 1013.7 1013.5 0.0
30/11:00pm 17.9 13.9 2.6 36 7.1 WNW 13 17 7 9 1013.7 1013.5 0.0
30/10:30pm 20.3 15.6 3.1 32 8.2 W 17 20 9 11 1013.7 1013.5 0.0
30/10:00pm 22.3 17.0 2.9 28 9.4 W 20 28 11 15 1013.6 1013.4 0.0
30/09:30pm 23.8 17.9 3.7 27 10.0 W 24 32 13 17 1013.4 1013.2 0.0
30/09:00pm 19.7 15.8 5.4 39 7.1 WNW 15 17 8 9 1013.4 1013.2 0.0
30/08:30pm 19.0 16.3 5.8 42 6.6 WNW 9 13 5 7 1013.1 1012.9 0.0
30/08:00pm 19.7 17.1 6.1 41 6.9 WNW 9 11 5 6 1012.8 1012.5 0.0
30/07:30pm 20.5 17.8 5.7 38 7.4 NW 9 11 5 6 1012.5 1012.2 0.0
30/07:00pm 22.0 19.0 5.8 35 8.3 NW 11 15 6 8 1012.1 1011.9 0.0
30/06:30pm 23.5 20.5 5.9 32 9.1 NW 11 15 6 8 1011.8 1011.6 0.0
30/06:00pm 24.4 21.1 6.6 32 9.3 NNW 13 17 7 9 1011.6 1011.4 0.0
30/05:30pm 26.6 23.0 6.6 28 10.6 NNW 15 19 8 10 1011.6 1011.4 0.0
30/05:00pm 28.7 24.6 6.1 24 12.1 NW 17 20 9 11 1011.9 1011.7 0.0
30/04:30pm 29.8 24.1 5.1 21 13.0 NW 24 33 13 18 1011.9 1011.7 0.0
30/04:00pm 30.2 24.0 6.1 22 13.0 NW 28 37 15 20 1012.4 1012.1 0.0
30/03:30pm 29.6 22.2 5.0 21 12.9 WNW 33 46 18 25 1012.5 1012.2 0.0
30/03:11pm 30.2 22.8 4.8 20 13.4 NW 33 52 18 28 1012.3 1012.0 0.0
30/03:00pm 29.5 22.3 4.9 21 12.9 NW 32 43 17 23 1012.4 1012.1 0.0
30/02:43pm 30.1 22.8 4.7 20 13.3 NW 32 50 17 27 1012.4 1012.1 0.0
30/02:30pm 30.9 24.7 6.0 21 13.4 NW 28 39 15 21 1012.5 1012.2 0.0
30/02:00pm 28.5 22.3 6.0 24 12.0 NNW 28 35 15 19 1012.9 1012.6 0.0
30/01:30pm 28.5 21.5 6.0 24 12.0 NNW 32 43 17 23 1013.4 1013.2 0.0
30/01:00pm 28.4 22.0 5.3 23 12.1 NW 28 37 15 20 1014.1 1013.9 0.0
30/12:43pm 28.9 22.5 5.1 22 12.5 NW 28 48 15 26 1014.2 1014.0 0.0
30/12:30pm 29.0 22.5 6.4 24 12.1 NW 30 39 16 21 1014.7 1014.5 0.0
30/12:00pm 28.8 23.1 8.5 28 11.3 NNW 28 39 15 21 1014.8 1014.6 0.0
30/11:30am 29.5 23.2 9.1 28 11.5 NNW 32 43 17 23 1014.8 1014.6 0.0
30/11:00am 27.3 20.0 7.2 28 10.8 N 35 44 19 24 1015.0 1014.8 0.0
30/10:30am 26.6 21.7 8.6 32 9.9 NNW 24 33 13 18 1015.8 1015.6 0.0
30/10:00am 25.6 19.7 7.7 32 9.6 NW 28 39 15 21 1016.8 1016.6 0.0
30/09:30am 27.0 20.9 8.4 31 10.2 NNW 30 41 16 22 1016.5 1016.3 0.0
30/09:00am 25.3 19.6 8.3 34 9.2 N 28 35 15 19 1016.5 1016.3 0.0
30/08:30am 24.8 18.8 7.0 32 9.4 N 28 43 15 23 1016.5 1016.3 0.0
30/08:00am 24.2 20.2 9.0 38 8.3 NNW 20 30 11 16 1016.6 1016.4 0.0
30/07:30am 20.3 19.1 9.5 50 5.8 NNE 6 9 3 5 1016.4 1016.2 0.0
30/07:00am 16.5 15.2 10.1 66 3.4 E 7 9 4 5 1016.3 1016.1 0.0
30/06:30am 14.5 12.7 8.0 65 3.3 ENE 7 9 4 5 1016.1 1015.9 0.0
30/06:00am 12.7 10.8 6.5 66 3.0 NNE 6 7 3 4 1015.7 1015.5 0.0
30/05:30am 13.0 11.0 6.4 64 3.2 ENE 6 7 3 4 1015.4 1015.2 0.0
30/05:00am 13.9 11.8 6.7 62 3.5 ENE 7 9 4 5 1015.2 1015.0 0.0
30/04:30am 13.1 10.9 6.2 63 3.3 ENE 7 9 4 5 1015.0 1014.8 0.0
30/04:00am 13.7 11.1 6.1 60 3.7 NE 9 9 5 5 1014.9 1014.7 0.0
30/03:30am 14.4 12.3 6.7 60 3.8 NE 7 9 4 5 1014.9 1014.7 0.0
30/03:00am 14.2 11.3 6.3 59 3.8 NE 11 13 6 7 1015.0 1014.8 0.0
30/02:30am 14.7 11.4 6.5 58 4.0 NNE 13 15 7 8 1015.2 1015.0 0.0

Other Formats:

Comma delimited format used in spreadsheet applications
http://www.bom.gov.au/fwo/IDN60801/IDN60801.95719.axf

JavaScript Object Notation format (JSON) in row-major order
http://www.bom.gov.au/fwo/IDN60801/IDN60801.95719.json